Time;durP1;ratioP1;P1;durP2;ratioP2;P2;SDS_P1;SDS_P2;PMS_P1;PMS_P2;Temp;Humidity;BMP_temperature;BMP_pressure;BME280_temperature;BME280_humidity;BME280_pressure;Samples;Min_cycle;Max_cycle;Signal;HPM_P1;HPM_P2
2024/02/29 00:01:16;;;;;;;24.35;12.52;;;2.40;99.90;;;0.92;96.39;101739.63;4898229;28;20042;-79
2024/02/29 00:03:42;;;;;;;25.58;11.73;;;2.50;99.90;;;0.90;96.52;101735.28;4955181;28;20047;-78
2024/02/29 00:06:08;;;;;;;22.25;11.68;;;2.40;99.90;;;0.91;96.21;101739.63;4955722;28;20082;-78
2024/02/29 00:08:34;;;;;;;24.75;11.50;;;2.40;99.90;;;0.87;96.12;101735.25;4945856;28;20457;-78
2024/02/29 00:10:59;;;;;;;23.92;11.50;;;2.40;99.90;;;0.81;96.71;101730.88;4936207;28;20097;-78
2024/02/29 00:13:31;;;;;;;24.83;11.93;;;2.30;99.90;;;0.79;96.05;101730.84;4946194;28;20099;-78
2024/02/29 00:15:57;;;;;;;25.83;12.00;;;2.30;99.90;;;0.76;96.37;101735.16;4882334;28;20085;-78
2024/02/29 00:18:23;;;;;;;24.77;11.60;;;2.30;99.90;;;0.73;96.07;101730.78;4934309;28;20101;-78
2024/02/29 00:20:49;;;;;;;21.50;10.10;;;2.30;99.90;;;0.68;96.36;101729.88;4949318;28;20582;-78
2024/02/29 00:23:15;;;;;;;26.80;11.60;;;2.20;99.90;;;0.57;96.55;101726.31;4934914;28;20157;-78
2024/02/29 00:25:43;;;;;;;30.67;11.82;;;2.10;99.90;;;0.51;96.62;101723.66;4915187;28;20050;-78
2024/02/29 00:28:12;;;;;;;26.50;12.38;;;2.10;99.90;;;0.47;96.85;101725.31;4921931;28;20117;-78
2024/02/29 00:30:37;;;;;;;24.42;11.40;;;2.10;99.90;;;0.44;96.67;101721.84;4898334;28;20513;-78
2024/02/29 00:33:04;;;;;;;22.73;10.82;;;2.00;99.90;;;0.36;97.02;101713.97;4932792;28;20037;-78
2024/02/29 00:35:31;;;;;;;24.77;11.35;;;1.90;99.90;;;0.28;97.13;101706.13;4936365;28;20506;-80
2024/02/29 00:38:05;;;;;;;24.95;10.27;;;1.90;99.90;;;0.22;97.26;101719.00;4968004;28;20043;-80
2024/02/29 00:40:30;;;;;;;23.55;10.35;;;1.80;99.90;;;0.15;97.66;101717.19;4931993;28;20038;-80
2024/02/29 00:42:57;;;;;;;24.10;11.70;;;1.80;99.90;;;0.08;98.14;101711.06;4899200;28;21393;-78
2024/02/29 00:45:23;;;;;;;27.52;11.45;;;1.70;99.90;;;0.04;98.54;101717.03;4917854;28;20060;-78
2024/02/29 00:47:56;;;;;;;24.95;10.13;;;1.60;99.90;;;-0.04;99.16;101713.53;4922385;28;20058;-78
2024/02/29 00:50:22;;;;;;;24.58;11.00;;;1.60;99.90;;;-0.07;100.00;101716.03;4904823;28;20039;-79
2024/02/29 00:52:48;;;;;;;23.35;11.23;;;1.60;99.90;;;-0.04;99.80;101708.34;4910721;28;20124;-78
2024/02/29 00:55:14;;;;;;;27.38;11.57;;;1.60;99.90;;;-0.04;100.00;101706.63;4911750;28;20054;-78
2024/02/29 00:57:40;;;;;;;24.75;11.55;;;1.60;99.90;;;-0.04;100.00;101705.75;4923218;28;20046;-77
2024/02/29 01:00:12;;;;;;;26.08;11.63;;;1.60;99.90;;;-0.07;100.00;101696.19;4947265;28;20080;-77
2024/02/29 01:02:37;;;;;;;29.23;11.60;;;1.50;99.90;;;-0.06;100.00;101699.69;4924970;28;20034;-77
2024/02/29 01:05:04;;;;;;;24.02;11.25;;;1.50;99.90;;;-0.07;100.00;101695.34;4941173;28;21209;-78
2024/02/29 01:07:30;;;;;;;23.75;10.60;;;1.50;99.90;;;-0.10;100.00;101697.91;4919149;28;20065;-77
2024/02/29 01:09:56;;;;;;;26.00;11.85;;;1.50;99.90;;;-0.14;100.00;101688.34;4931383;28;20050;-79
2024/02/29 01:12:27;;;;;;;28.63;11.95;;;1.50;99.90;;;-0.15;100.00;101687.50;4946705;28;20037;-79
2024/02/29 01:14:53;;;;;;;22.40;11.10;;;1.50;99.90;;;-0.20;100.00;101676.19;4916181;28;20061;-80
2024/02/29 01:17:19;;;;;;;25.98;11.32;;;1.40;99.90;;;-0.21;100.00;101684.81;4932405;28;20063;-79
2024/02/29 01:19:44;;;;;;;24.52;10.73;;;1.40;99.90;;;-0.25;100.00;101678.72;4915442;28;20497;-77
2024/02/29 01:22:10;;;;;;;28.23;11.25;;;1.40;99.90;;;-0.26;100.00;101678.69;4949241;28;20037;-77
2024/02/29 01:24:36;;;;;;;25.35;11.65;;;1.40;99.90;;;-0.29;100.00;101682.13;4912126;28;20049;-77
2024/02/29 01:27:07;;;;;;;26.58;11.60;;;1.30;99.90;;;-0.32;100.00;101684.66;4918096;28;20118;-77
2024/02/29 01:29:33;;;;;;;25.20;12.10;;;1.30;99.90;;;-0.33;100.00;101680.31;4915682;28;20030;-78
2024/02/29 01:31:58;;;;;;;26.48;11.68;;;1.30;99.90;;;-0.36;100.00;101682.03;4931403;28;20038;-78
2024/02/29 01:34:24;;;;;;;24.10;11.52;;;1.30;99.90;;;-0.37;100.00;101682.84;4899476;28;20097;-77
2024/02/29 01:36:50;;;;;;;25.23;12.15;;;1.30;99.90;;;-0.34;100.00;101693.28;4939693;28;20057;-77
2024/02/29 01:39:16;;;;;;;24.73;11.77;;;1.20;99.90;;;-0.34;100.00;101686.38;4935643;28;20043;-77
2024/02/29 01:41:47;;;;;;;25.10;11.15;;;1.30;99.90;;;-0.35;100.00;101686.34;4943751;28;20030;-77
2024/02/29 01:44:13;;;;;;;26.05;12.88;;;1.20;99.90;;;-0.38;100.00;101673.38;4942279;28;20704;-77
2024/02/29 01:46:38;;;;;;;35.15;13.65;;;1.20;99.90;;;-0.40;100.00;101668.16;4913765;28;20045;-77
2024/02/29 01:49:06;;;;;;;29.23;12.63;;;1.20;99.90;;;-0.40;100.00;101668.16;4938998;28;20058;-76
2024/02/29 01:51:42;;;;;;;33.90;13.60;;;1.20;99.90;;;-0.42;100.00;101659.50;4933289;28;20031;-77
2024/02/29 01:54:08;;;;;;;28.40;11.90;;;1.10;99.90;;;-0.44;100.00;101656.03;4937638;28;20039;-77
2024/02/29 01:56:34;;;;;;;26.98;11.70;;;1.10;99.90;;;-0.46;100.00;101660.31;4938578;28;20102;-78
2024/02/29 01:59:01;;;;;;;25.27;11.35;;;1.10;99.90;;;-0.50;100.00;101651.63;4950499;28;20093;-77
2024/02/29 02:01:32;;;;;;;30.40;11.68;;;1.10;99.90;;;-0.58;100.00;101642.03;4903916;28;20506;-76
2024/02/29 02:03:58;;;;;;;31.15;12.05;;;1.00;99.90;;;-0.62;100.00;101644.59;4939007;28;20419;-77
2024/02/29 02:06:24;;;;;;;31.85;13.07;;;1.00;99.90;;;-0.61;100.00;101635.09;4919198;28;20165;-77
2024/02/29 02:08:50;;;;;;;35.25;14.30;;;1.00;99.90;;;-0.64;100.00;101630.75;4926529;28;20165;-78
2024/02/29 02:11:16;;;;;;;37.00;13.27;;;1.00;99.90;;;-0.62;100.00;101629.06;4928178;28;20047;-77
2024/02/29 02:13:49;;;;;;;38.00;15.23;;;1.00;99.90;;;-0.62;100.00;101625.63;4920937;28;20137;-77
2024/02/29 02:16:15;;;;;;;41.80;14.75;;;1.00;99.90;;;-0.62;100.00;101630.78;4922699;28;20043;-77
2024/02/29 02:18:41;;;;;;;35.22;13.73;;;1.00;99.90;;;-0.65;100.00;101620.38;4919959;28;20123;-77
2024/02/29 02:21:07;;;;;;;37.15;13.65;;;0.90;99.90;;;-0.72;100.00;101614.25;4933570;28;20047;-77
2024/02/29 02:23:37;;;;;;;33.65;14.60;;;0.90;99.90;;;-0.79;100.00;101616.75;4931051;28;20046;-76
2024/02/29 02:26:03;;;;;;;38.47;14.45;;;0.90;99.90;;;-0.82;100.00;101617.59;4934310;28;20508;-76
2024/02/29 02:28:29;;;;;;;34.08;14.98;;;0.80;99.90;;;-0.80;100.00;101612.41;4937060;28;20065;-76
2024/02/29 02:30:55;;;;;;;40.38;16.77;;;0.90;99.90;;;-0.80;100.00;101610.69;4956278;28;20034;-76
2024/02/29 02:33:23;;;;;;;41.78;16.63;;;0.90;99.90;;;-0.75;100.00;101613.38;4924772;28;20590;-76
2024/02/29 02:35:56;;;;;;;45.72;17.05;;;0.90;99.90;;;-0.75;100.00;101608.19;4948771;28;20031;-76
2024/02/29 02:38:22;;;;;;;44.10;17.63;;;0.80;99.90;;;-0.81;100.00;101608.09;4934645;28;20038;-76
2024/02/29 02:40:48;;;;;;;44.28;18.45;;;0.80;99.90;;;-0.78;100.00;101613.31;4914874;28;20462;-77
2024/02/29 02:43:14;;;;;;;49.97;19.63;;;0.90;99.90;;;-0.75;100.00;101605.59;4897164;28;20185;-76
2024/02/29 02:45:39;;;;;;;49.70;19.98;;;0.90;99.90;;;-0.71;100.00;101608.25;4916372;28;20034;-76
2024/02/29 02:48:06;;;;;;;48.83;18.35;;;0.90;99.90;;;-0.69;100.00;101601.38;4957426;28;20043;-76
2024/02/29 02:50:34;;;;;;;51.95;19.25;;;0.90;99.90;;;-0.68;100.00;101604.81;4925152;28;20045;-76
2024/02/29 02:53:00;;;;;;;50.00;18.85;;;0.90;99.90;;;-0.68;100.00;101612.59;4911184;28;20475;-78
2024/02/29 02:55:26;;;;;;;51.33;19.35;;;0.90;99.90;;;-0.70;100.00;101607.38;4925002;28;20043;-79
2024/02/29 02:57:51;;;;;;;48.67;19.75;;;0.90;99.90;;;-0.72;100.00;101603.91;4947536;28;20053;-78
2024/02/29 03:00:17;;;;;;;53.17;20.88;;;0.90;99.90;;;-0.73;100.00;101594.44;4933494;28;20042;-78
2024/02/29 03:02:43;;;;;;;54.53;21.05;;;0.90;99.90;;;-0.77;100.00;101587.47;4935870;28;20046;-78
2024/02/29 03:05:20;;;;;;;55.00;19.70;;;0.80;99.90;;;-0.83;100.00;101577.03;4942252;28;20039;-78
2024/02/29 03:07:45;;;;;;;51.40;20.67;;;0.80;99.90;;;-0.84;100.00;101578.75;4943908;28;20043;-76
2024/02/29 03:10:11;;;;;;;49.67;19.88;;;0.80;99.90;;;-0.86;100.00;101570.13;4933880;28;20410;-76
2024/02/29 03:12:48;;;;;;;56.28;22.38;;;0.80;99.90;;;-0.85;100.00;101561.50;4918576;28;20034;-76
2024/02/29 03:15:15;;;;;;;60.05;21.98;;;0.80;99.90;;;-0.84;100.00;101560.66;4928383;28;20052;-76
2024/02/29 03:17:46;;;;;;;54.75;19.83;;;0.80;99.90;;;-0.86;100.00;101551.16;4956779;28;20521;-77
2024/02/29 03:20:13;;;;;;;51.20;19.48;;;0.70;99.90;;;-0.91;100.00;101551.06;4928629;28;20043;-77
2024/02/29 03:22:40;;;;;;;51.40;19.55;;;0.70;99.90;;;-0.98;100.00;101544.06;4925961;28;20457;-75
2024/02/29 03:25:06;;;;;;;51.58;19.35;;;;;;;-1.04;100.00;101536.22;4926383;28;20083;-76
2024/02/29 03:27:32;;;;;;;44.13;18.45;;;0.60;99.90;;;-1.05;100.00;101544.84;4915914;28;20043;-77
2024/02/29 03:30:04;;;;;;;58.85;21.67;;;0.60;99.90;;;-1.05;100.00;101537.94;4944925;28;20044;-76
2024/02/29 03:32:29;;;;;;;51.83;18.85;;;0.70;99.90;;;-1.00;100.00;101529.41;4932621;28;20109;-76
2024/02/29 03:34:55;;;;;;;51.90;20.92;;;0.70;99.90;;;-1.01;100.00;101536.28;4921813;28;20035;-77
2024/02/29 03:37:21;;;;;;;44.97;18.42;;;0.60;99.90;;;-1.01;100.00;101543.19;4918727;28;20053;-77
2024/02/29 03:39:47;;;;;;;47.92;17.58;;;0.60;99.90;;;-1.04;100.00;101547.47;4964141;28;20090;-77
2024/02/29 03:42:17;;;;;;;53.20;19.17;;;0.60;99.90;;;-1.03;100.00;101540.56;4916364;28;20042;-76
2024/02/29 03:44:45;;;;;;;36.10;15.50;;;0.60;99.90;;;-1.07;100.00;101541.38;4906066;28;20114;-77
2024/02/29 03:47:12;;;;;;;48.25;17.35;;;0.60;99.90;;;-1.08;100.00;101545.69;4912035;28;20027;-78
2024/02/29 03:49:38;;;;;;;48.70;19.80;;;0.60;99.90;;;-1.06;100.00;101545.69;4934646;28;20134;-76
2024/02/29 03:52:04;;;;;;;49.70;19.95;;;0.60;99.90;;;-1.08;100.00;101537.94;4929858;28;20523;-77
2024/02/29 03:54:35;;;;;;;52.25;19.70;;;0.60;99.90;;;-1.06;100.00;101531.06;4932774;28;20030;-76
2024/02/29 03:57:01;;;;;;;53.40;18.95;;;0.60;99.90;;;-1.08;100.00;101529.28;4940294;28;20133;-77
2024/02/29 03:59:28;;;;;;;56.53;20.85;;;0.60;99.90;;;-1.06;100.00;101525.91;4898613;28;20022;-77
2024/02/29 04:01:55;;;;;;;52.13;21.52;;;0.60;99.90;;;-1.01;100.00;101519.91;4955267;28;20046;-76
2024/02/29 04:04:29;;;;;;;57.15;21.58;;;0.60;99.90;;;-0.99;100.00;101520.78;4938604;28;20035;-77
2024/02/29 04:06:56;;;;;;;54.33;20.73;;;0.60;99.90;;;-0.98;100.00;101515.63;4937218;28;20499;-77
2024/02/29 04:09:22;;;;;;;54.70;20.85;;;0.60;99.90;;;-0.99;100.00;101518.19;4946496;28;20046;-77
2024/02/29 04:11:49;;;;;;;51.08;19.63;;;0.60;99.90;;;-1.04;100.00;101512.97;4924975;28;20402;-77
2024/02/29 04:14:19;;;;;;;58.47;19.67;;;0.60;99.90;;;-1.10;100.00;101512.88;4935947;28;20063;-77
2024/02/29 04:16:45;;;;;;;58.58;22.27;;;0.60;99.90;;;-1.08;100.00;101509.50;4920920;28;20054;-77
2024/02/29 04:19:11;;;;;;;63.28;21.42;;;0.60;99.90;;;-1.09;100.00;101505.16;4930599;28;20031;-77
2024/02/29 04:21:45;;;;;;;65.15;23.55;;;0.60;99.90;;;-1.10;100.00;101502.53;4957820;28;20031;-77
2024/02/29 04:24:11;;;;;;;63.75;22.08;;;0.50;99.90;;;-1.17;100.00;101501.59;4942278;28;20031;-77
2024/02/29 04:26:37;;;;;;;61.88;21.08;;;0.50;99.90;;;-1.23;100.00;101498.94;4940124;28;20419;-77
2024/02/29 04:29:03;;;;;;;54.83;19.67;;;0.40;99.90;;;-1.29;100.00;101494.53;4930915;28;20033;-77
2024/02/29 04:31:29;;;;;;;59.70;20.35;;;0.40;99.90;;;-1.30;100.00;101497.09;4934000;28;20097;-77
2024/02/29 04:33:55;;;;;;;55.60;20.77;;;0.40;99.90;;;-1.33;100.00;101489.31;4936281;28;20131;-77
2024/02/29 04:36:28;;;;;;;61.60;22.75;;;0.40;99.90;;;-1.30;100.00;101497.97;4934119;28;20484;-77
2024/02/29 04:38:54;;;;;;;61.10;21.73;;;0.40;99.90;;;-1.30;100.00;101497.09;4921425;28;20043;-77
2024/02/29 04:41:19;;;;;;;73.00;24.65;;;0.40;99.90;;;-1.28;100.00;101492.81;4947569;28;20580;-77
2024/02/29 04:43:45;;;;;;;66.50;24.25;;;0.40;99.90;;;-1.28;100.00;101488.50;4952647;28;20037;-77
2024/02/29 04:46:11;;;;;;;58.83;22.52;;;0.40;99.90;;;-1.27;100.00;101485.09;4950782;28;20094;-77
2024/02/29 04:48:46;;;;;;;66.47;23.60;;;0.40;99.90;;;-1.26;100.00;101480.78;4909431;28;20051;-77
2024/02/29 04:51:11;;;;;;;69.50;23.65;;;0.40;99.90;;;-1.27;100.00;101482.53;4937573;28;20047;-77
2024/02/29 04:53:37;;;;;;;68.07;23.25;;;0.40;99.90;;;-1.26;100.00;101480.78;4949335;28;20074;-77
2024/02/29 04:56:08;;;;;;;70.35;22.45;;;0.40;99.90;;;-1.24;100.00;101481.69;4969577;28;21031;-77
2024/02/29 04:58:36;;;;;;;64.15;22.13;;;0.40;99.90;;;-1.27;100.00;101474.75;4948476;28;20035;-77
2024/02/29 05:01:04;;;;;;;66.60;23.65;;;0.40;99.90;;;-1.29;100.00;101463.53;4940964;28;20474;-77
2024/02/29 05:03:30;;;;;;;74.85;24.27;;;0.40;99.90;;;-1.30;100.00;101459.19;4948543;28;20069;-77
2024/02/29 05:05:56;;;;;;;76.43;23.15;;;0.40;99.90;;;-1.29;100.00;101467.84;4935112;28;20530;-77
2024/02/29 05:08:26;;;;;;;61.72;22.10;;;0.40;99.90;;;-1.31;100.00;101465.22;4961078;28;20059;-76
2024/02/29 05:10:52;;;;;;;68.63;23.52;;;0.30;99.90;;;-1.31;100.00;101464.38;4926519;28;20100;-77
2024/02/29 05:13:18;;;;;;;69.50;24.30;;;0.40;99.90;;;-1.30;100.00;101469.53;4962592;28;20046;-76
2024/02/29 05:15:44;;;;;;;64.35;23.67;;;0.40;99.90;;;-1.28;100.00;101456.66;4948998;28;20028;-76
2024/02/29 05:18:10;;;;;;;65.20;24.05;;;0.40;99.90;;;-1.26;100.00;101455.81;4918804;28;20043;-78
2024/02/29 05:20:36;;;;;;;66.20;22.88;;;0.40;99.90;;;-1.26;100.00;101445.47;4954569;28;20031;-79
2024/02/29 05:23:11;;;;;;;71.53;24.63;;;0.40;99.90;;;-1.23;100.00;101460.19;4927980;28;20064;-79
2024/02/29 05:25:37;;;;;;;66.32;23.30;;;0.40;99.90;;;-1.23;100.00;101444.69;4944308;28;20038;-78
2024/02/29 05:28:03;;;;;;;64.47;22.70;;;0.50;99.90;;;-1.22;100.00;101445.53;4936140;28;20503;-78
2024/02/29 05:30:32;;;;;;;56.38;20.83;;;0.40;99.90;;;-1.23;100.00;101449.84;4925662;28;20431;-79
2024/02/29 05:33:00;;;;;;;64.82;23.02;;;0.40;99.90;;;-1.21;100.00;101457.59;4945751;28;20118;-78
2024/02/29 05:35:26;;;;;;;70.80;25.15;;;0.40;99.90;;;-1.19;100.00;101451.59;4931661;28;20047;-77
2024/02/29 05:37:52;;;;;;;72.05;24.27;;;0.50;99.90;;;-1.18;100.00;101445.59;4905776;28;20074;-77
2024/02/29 05:40:17;;;;;;;75.43;25.48;;;0.50;99.90;;;-1.16;100.00;101441.31;4913771;28;20533;-76
2024/02/29 05:42:43;;;;;;;67.38;23.98;;;0.50;99.90;;;-1.17;100.00;101434.41;4939214;28;20051;-76
2024/02/29 05:45:14;;;;;;;74.95;26.75;;;0.50;99.90;;;-1.16;100.00;101441.31;4933311;28;20039;-76
2024/02/29 05:47:40;;;;;;;73.72;24.85;;;0.50;99.90;;;-1.14;100.00;101454.28;4937903;28;20594;-77
2024/02/29 05:50:07;;;;;;;73.78;25.77;;;0.50;99.90;;;-1.15;100.00;101448.22;4944170;28;20070;-77
2024/02/29 05:52:36;;;;;;;77.60;26.77;;;0.50;99.90;;;-1.13;100.00;101441.34;4936343;28;20219;-77
2024/02/29 05:55:09;;;;;;;74.88;25.38;;;0.50;99.90;;;-1.14;100.00;101439.63;4931104;28;20046;-76
2024/02/29 05:57:35;;;;;;;68.78;24.67;;;0.50;99.90;;;-1.13;100.00;101436.16;4974783;28;20046;-77
2024/02/29 06:00:03;;;;;;;81.93;26.73;;;0.50;99.90;;;-1.10;100.00;101440.50;4933783;28;20043;-76
2024/02/29 06:02:38;;;;;;;77.60;25.55;;;0.50;99.90;;;-1.10;100.00;101441.41;4908950;28;20649;-77
2024/02/29 06:05:05;;;;;;;72.70;25.10;;;0.50;99.90;;;-1.14;100.00;101444.78;4932124;28;20089;-79
2024/02/29 06:07:31;;;;;;;66.00;23.35;;;0.50;99.90;;;-1.11;100.00;101442.22;4961673;28;20047;-77
2024/02/29 06:10:09;;;;;;;70.78;24.98;;;0.60;99.90;;;-1.14;100.00;101443.94;4957344;28;20072;-77
2024/02/29 06:12:35;;;;;;;67.10;24.73;;;0.50;99.90;;;-1.12;100.00;101448.25;4919328;28;20049;-77
2024/02/29 06:15:01;;;;;;;71.82;25.27;;;0.50;99.90;;;-1.15;100.00;101447.34;4927274;28;20026;-77
2024/02/29 06:17:27;;;;;;;87.07;31.63;;;0.50;99.90;;;-1.13;100.00;101449.09;4935240;28;20094;-77
2024/02/29 06:19:55;;;;;;;82.28;30.45;;;0.50;99.90;;;-1.11;100.00;101442.22;4934997;28;20101;-77
2024/02/29 06:22:22;;;;;;;71.60;26.23;;;0.50;99.90;;;-1.10;100.00;101441.41;4973230;28;20035;-77
2024/02/29 06:24:52;;;;;;;70.10;25.75;;;0.60;99.90;;;-1.08;100.00;101441.41;4972001;28;20137;-77
2024/02/29 06:27:23;;;;;;;76.97;28.17;;;0.60;99.90;;;-1.07;100.00;101433.66;4946602;28;20065;-77
2024/02/29 06:29:49;;;;;;;79.20;28.38;;;0.60;99.90;;;-1.04;100.00;101435.41;4966167;28;20538;-78
2024/02/29 06:32:15;;;;;;;81.38;31.40;;;0.60;99.90;;;-1.06;100.00;101431.94;4916879;28;20450;-78
2024/02/29 06:34:41;;;;;;;86.72;33.20;;;0.60;99.90;;;-1.05;100.00;101434.56;4941269;28;20030;-78
2024/02/29 06:37:07;;;;;;;74.50;29.80;;;0.60;99.90;;;-1.05;100.00;101429.38;4923480;28;20042;-78
2024/02/29 06:39:38;;;;;;;80.28;29.13;;;0.60;99.90;;;-0.99;100.00;101433.78;4914803;28;20558;-78
2024/02/29 06:42:04;;;;;;;69.07;25.70;;;0.70;99.90;;;-0.98;100.00;101432.06;4933300;28;20078;-78
2024/02/29 06:44:30;;;;;;;71.28;26.17;;;0.70;99.90;;;-0.94;100.00;101432.09;4950837;28;20035;-78
2024/02/29 06:46:56;;;;;;;79.05;26.83;;;0.70;99.90;;;-0.90;100.00;101441.63;4931334;28;20035;-78
2024/02/29 06:49:23;;;;;;;77.20;27.35;;;0.70;99.90;;;-0.85;100.00;101439.09;4956846;28;20039;-78
2024/02/29 06:51:55;;;;;;;76.97;27.30;;;0.80;99.90;;;-0.81;100.00;101448.63;4923832;28;20105;-78
2024/02/29 06:54:21;;;;;;;80.68;28.30;;;0.80;99.90;;;-0.76;100.00;101446.97;4916577;28;20049;-78
2024/02/29 06:56:47;;;;;;;76.80;26.23;;;0.90;99.90;;;-0.72;100.00;101451.31;4949456;28;20039;-78
2024/02/29 06:59:12;;;;;;;83.03;29.55;;;0.90;99.90;;;-0.67;100.00;101441.91;4937024;28;20031;-78
2024/02/29 07:01:38;;;;;;;75.63;27.00;;;1.00;99.90;;;-0.58;100.00;101437.66;4932752;28;20062;-78
2024/02/29 07:04:04;;;;;;;83.97;30.88;;;1.00;99.90;;;-0.50;100.00;101431.72;4975751;28;20059;-79
2024/02/29 07:06:35;;;;;;;65.47;23.73;;;1.10;99.90;;;-0.43;100.00;101430.09;4954167;28;20047;-78
2024/02/29 07:09:01;;;;;;;69.30;24.05;;;1.10;99.90;;;-0.40;100.00;101429.25;4925765;28;20503;-77
2024/02/29 07:11:28;;;;;;;81.47;29.00;;;1.20;99.90;;;-0.36;100.00;101424.09;4938864;28;20543;-78
2024/02/29 07:13:54;;;;;;;67.63;24.48;;;1.20;99.90;;;-0.32;100.00;101420.69;4970015;28;20074;-78
2024/02/29 07:16:20;;;;;;;77.93;28.77;;;1.30;99.90;;;-0.23;100.00;101418.19;4932266;28;20542;-78
2024/02/29 07:18:48;;;;;;;76.93;28.13;;;1.40;99.90;;;-0.12;100.00;101405.34;4959818;28;20042;-78
2024/02/29 07:21:22;;;;;;;83.70;30.35;;;1.40;99.90;;;-0.01;100.00;101408.88;4932987;28;20030;-78
2024/02/29 07:23:48;;;;;;;68.25;26.55;;;1.50;99.90;;;0.07;100.00;101406.34;4924200;28;20038;-77
2024/02/29 07:26:21;;;;;;;82.95;27.63;;;1.60;99.90;;;0.11;100.00;101404.63;4916120;28;20048;-77
2024/02/29 07:28:47;;;;;;;79.70;31.52;;;1.60;99.90;;;0.17;100.00;101397.81;4943387;28;20038;-78
2024/02/29 07:31:13;;;;;;;67.43;24.50;;;1.70;99.90;;;0.26;100.00;101404.75;4940643;28;20719;-78
2024/02/29 07:33:39;;;;;;;79.47;28.80;;;1.80;99.90;;;0.31;100.00;101390.09;4919441;28;20034;-77
2024/02/29 07:36:05;;;;;;;86.10;32.42;;;1.90;99.90;;;0.42;100.00;101392.75;4952709;28;20038;-78
2024/02/29 07:38:36;;;;;;;56.65;21.08;;;2.00;99.90;;;0.48;100.00;101386.75;4908762;28;20049;-77
2024/02/29 07:41:02;;;;;;;61.17;24.40;;;2.00;99.90;;;0.54;100.00;101382.47;4909221;28;20039;-77
2024/02/29 07:43:28;;;;;;;73.60;28.60;;;2.10;99.90;;;0.60;100.00;101387.69;4929920;28;20430;-78
2024/02/29 07:45:53;;;;;;;70.22;27.13;;;2.20;99.90;;;0.68;100.00;101390.31;4916897;28;20909;-78
2024/02/29 07:48:19;;;;;;;74.97;30.05;;;2.20;99.90;;;0.75;100.00;101386.00;4907558;28;20038;-78
2024/02/29 07:50:52;;;;;;;74.82;30.42;;;2.10;99.90;;;0.90;100.00;101380.03;4927742;28;20038;-78
2024/02/29 07:53:18;;;;;;;75.90;31.52;;;2.40;99.90;;;0.95;100.00;101384.38;4953572;28;20042;-78
2024/02/29 07:55:44;;;;;;;76.22;30.73;;;2.50;99.90;;;1.07;100.00;101383.53;4927951;28;20129;-77
2024/02/29 07:58:09;;;;;;;72.45;29.25;;;2.60;99.90;;;1.19;100.00;101385.31;4958131;28;20039;-78
2024/02/29 08:00:37;;;;;;;69.85;28.00;;;2.70;99.90;;;1.23;100.00;101381.84;4915812;28;20035;-78
2024/02/29 08:03:07;;;;;;;53.80;23.00;;;2.70;99.90;;;1.19;100.00;101377.53;4915727;28;20121;-78
2024/02/29 08:05:38;;;;;;;65.07;28.05;;;2.80;99.90;;;1.30;100.00;101377.56;4943231;28;20047;-78
2024/02/29 08:08:04;;;;;;;61.80;22.15;;;2.90;99.90;;;1.34;100.00;101387.94;4931086;28;20034;-78
2024/02/29 08:10:35;;;;;;;60.15;24.65;;;2.90;99.90;;;1.44;100.00;101388.81;4928562;28;20038;-78
2024/02/29 08:13:02;;;;;;;36.88;14.93;;;3.00;99.90;;;1.51;100.00;101384.50;4943636;28;20042;-78
2024/02/29 08:15:28;;;;;;;62.60;26.33;;;3.00;99.90;;;1.64;100.00;101370.66;4953120;28;20494;-78
2024/02/29 08:17:55;;;;;;;56.30;21.15;;;2.40;99.90;;;1.65;100.00;101377.59;4970971;28;20047;-78
2024/02/29 08:20:30;;;;;;;61.85;27.50;;;3.20;99.90;;;1.78;100.00;101376.72;4944376;28;20419;-78
2024/02/29 08:22:57;;;;;;;51.72;22.42;;;3.30;99.90;;;1.94;100.00;101379.31;4926139;28;20069;-78
2024/02/29 08:25:30;;;;;;;51.10;21.15;;;3.40;99.90;;;2.02;100.00;101381.03;4932372;28;20054;-78
2024/02/29 08:27:56;;;;;;;64.75;28.30;;;3.60;99.90;;;2.15;100.00;101381.91;4923506;28;20037;-78
2024/02/29 08:30:25;;;;;;;70.22;31.83;;;3.70;99.90;;;2.29;100.00;101373.19;4928323;28;20039;-78
2024/02/29 08:32:51;;;;;;;25.60;12.30;;;3.80;99.90;;;2.39;100.00;101373.19;4934358;28;20111;-78
2024/02/29 08:35:22;;;;;;;64.32;28.77;;;3.90;99.90;;;2.52;100.00;101381.81;4914731;28;20427;-78
2024/02/29 08:37:48;;;;;;;56.13;26.05;;;4.00;99.90;;;2.62;100.00;101372.25;4949022;28;20154;-80
2024/02/29 08:40:14;;;;;;;59.47;26.77;;;4.10;99.90;;;2.72;100.00;101371.38;4930809;28;20055;-79
2024/02/29 08:42:40;;;;;;;35.10;13.57;;;4.20;99.90;;;2.74;100.00;101376.53;4953113;28;20113;-79
2024/02/29 08:45:08;;;;;;;57.70;27.17;;;4.30;99.90;;;2.87;100.00;101375.63;4957759;28;20042;-78
2024/02/29 08:47:40;;;;;;;53.70;23.23;;;4.40;99.90;;;3.05;100.00;101367.72;4963775;28;20125;-79
2024/02/29 08:50:09;;;;;;;62.30;27.85;;;4.60;99.90;;;3.24;100.00;101380.63;4958151;28;20498;-80
2024/02/29 08:52:35;;;;;;;48.95;22.42;;;4.70;99.90;;;3.34;99.19;101368.44;4928550;28;20038;-79
2024/02/29 08:55:06;;;;;;;54.80;25.52;;;4.70;99.90;;;3.35;97.28;101373.63;4920217;28;20122;-80
2024/02/29 08:57:36;;;;;;;36.83;15.32;;;4.90;99.90;;;3.42;95.41;101375.31;4955070;28;20038;-80
2024/02/29 09:00:03;;;;;;;56.20;25.50;;;4.90;99.90;;;3.53;93.83;101382.19;4942368;28;20045;-81
2024/02/29 09:02:36;;;;;;;53.72;23.15;;;5.00;99.90;;;3.58;92.67;101381.28;4948589;28;20038;-80
2024/02/29 09:05:02;;;;;;;49.08;25.00;;;5.10;99.90;;;3.70;92.30;101375.97;4947545;28;20039;-81
2024/02/29 09:07:28;;;;;;;59.83;27.52;;;5.20;99.90;;;3.82;92.40;101374.16;4942545;28;20030;-79
2024/02/29 09:09:55;;;;;;;50.33;23.17;;;5.20;99.90;;;3.83;91.36;101371.53;4959322;28;20086;-81
2024/02/29 09:12:27;;;;;;;55.25;26.65;;;5.30;99.90;;;3.93;90.79;101379.25;4941589;28;20042;-81
2024/02/29 09:14:53;;;;;;;41.92;20.27;;;5.30;99.90;;;3.83;89.68;101370.69;4986986;23;20187;-81
2024/02/29 09:17:20;;;;;;;47.97;20.67;;;5.40;99.90;;;4.01;89.72;101374.84;4931746;28;20034;-81
2024/02/29 09:19:58;;;;;;;49.08;23.33;;;5.60;99.90;;;4.16;89.43;101366.88;4960773;28;20533;-82
2024/02/29 09:22:27;;;;;;;50.45;23.45;;;5.60;99.90;;;4.21;88.27;101370.34;4956312;28;20106;-83
2024/02/29 09:24:58;;;;;;;33.45;13.15;;;5.70;99.90;;;4.27;88.11;101370.25;4971302;28;20556;-80
2024/02/29 09:30:19;;;;;;;37.85;17.50;;;5.80;99.90;;;4.30;86.75;101369.38;4973465;28;20102;-81
2024/02/29 09:32:52;;;;;;;49.83;25.60;;;5.80;99.90;;;4.44;86.59;101374.44;4981888;28;20058;-81
2024/02/29 09:35:29;;;;;;;51.63;22.67;;;5.90;99.90;;;4.59;86.01;101383.84;4965067;28;20039;-81
2024/02/29 09:37:55;;;;;;;53.00;27.77;;;6.10;99.90;;;4.75;85.16;101385.38;4982671;28;20038;-80
2024/02/29 09:40:31;;;;;;;39.72;18.40;;;6.20;99.90;;;4.83;84.73;101393.97;4947256;28;20521;-81
2024/02/29 09:42:58;;;;;;;48.80;25.83;;;6.30;99.90;;;5.01;84.34;101381.56;4979120;28;20041;-81
2024/02/29 09:45:33;;;;;;;47.05;21.63;;;6.40;99.90;;;5.11;83.74;101396.22;4948565;28;20041;-80
2024/02/29 09:48:05;;;;;;;49.53;23.63;;;6.50;99.90;;;5.17;82.67;101387.47;4950623;28;20037;-80
2024/02/29 09:50:36;;;;;;;43.90;21.48;;;6.60;99.90;;;5.26;82.16;101387.34;4952767;28;20025;-80
2024/02/29 09:53:17;;;;;;;45.55;22.13;;;6.60;99.90;;;5.19;81.69;101385.72;4970518;28;20034;-80
2024/02/29 09:55:47;;;;;;;39.60;18.27;;;6.60;99.90;;;5.14;80.81;101389.25;4983020;28;20056;-80
2024/02/29 09:58:27;;;;;;;44.45;19.10;;;6.70;99.90;;;5.23;81.03;101383.03;4952692;28;20034;-80
2024/02/29 10:01:02;;;;;;;47.03;23.00;;;6.70;99.90;;;5.42;81.11;101380.13;4960076;28;20046;-80
2024/02/29 10:03:42;;;;;;;45.43;22.07;;;6.80;99.90;;;5.44;80.22;101386.19;4954266;28;20061;-80
2024/02/29 10:06:09;;;;;;;42.25;20.27;;;6.90;99.90;;;5.46;79.83;101387.91;4951767;28;20034;-80
2024/02/29 10:08:35;;;;;;;41.72;18.70;;;6.90;99.90;;;5.51;79.48;101372.19;4957089;28;20041;-80